Terminal Aerodrome Forecast
Issued by NWS

Home | Current Version | Previous Version | Text Only | Print | Product List | Glossary On
Versions: 1 2 3 4 5 6 7 8 9 10 11 12 13 14 15 16 17 18 19
000
FTAK31 PAJN 231734
TAFAWG
TAF
PAWG 231734Z 2318/2418 10006KT P6SM VCSH FEW035 BKN050
     FM232200 10006KT P6SM FEW040 SCT100
     FM241500 10010KT 5SM -SN BR OVC030
      AMD LTD TO CLD VIS AND WIND 2406/2415=

USA.gov is the U.S. government's official web portal to all federal, state and local government web resources and services.